• Join FlightAware (Why Join?)
  • Login
  • US Flag 
07:21PM EDT


 

Airport Tracker/Info


-or-


 

Live Flight TrackerFlight Track Log ✈ N920AC ✈ 03-Jul-2013 ✈ KORL - KAPF

Flight Track Log - Related Links

Times and Time Zones

All times are in EDT time to prevent confusion due to time zone crossing. See the N920AC flight status page for this flight to view local times or setup timezone preferences in your user account.

Time Position Orientation Groundspeed Altitude Reporting Facility
EDT Latitude Longitude Course Direction KTS MPH feet Rate Location/Type
05:14PM 28.5667 -81.3333 189° South 105 121 900  Level Orlando TRACON
05:15PM 28.5500 -81.3667 240° Southwest 109 125 1,200 180 Climbing Orlando TRACON
05:16PM 28.5500 -81.4000 270° West 113 130 1,300 120 Climbing Orlando TRACON
05:17PM 28.5500 -81.4333 270° West 112 129 1,500 120 Climbing Orlando TRACON
05:18PM 28.5500 -81.4667 270° West 103 119 1,600  Climbing Orlando TRACON
05:19PM 28.5333 -81.5000 240° Southwest 113 130 1,500  Descending Orlando TRACON
05:20PM 28.3875 -81.3627 189° South  Level Estimated
05:20PM 28.5167 -81.5333 240° Southwest 99 114 1,600  Level Orlando TRACON
05:21PM 28.5167 -81.5500 270° West 100 115 1,600 60 Level Orlando TRACON
05:22PM 28.4833 -81.5667 204° Southwest 76 87 1,800 180 Climbing Orlando TRACON
05:23PM 28.4667 -81.5667 180° South 70 81 2,000 60 Climbing Orlando TRACON
05:24PM 28.4500 -81.5667 180° South 81 93 2,000  Level Orlando TRACON
05:25PM 28.4333 -81.5833 221° Southwest 82 94 2,100  Climbing Orlando TRACON
05:26PM 28.4000 -81.5833 180° South 76 87 2,100 -60 Level Orlando TRACON
05:27PM 28.3833 -81.5833 180° South 81 93 2,000  Descending Orlando TRACON
05:28PM 28.3667 -81.5833 180° South 82 94 2,100  Climbing Orlando TRACON
05:29PM 28.3333 -81.6000 204° Southwest 77 89 2,100  Level Orlando TRACON
05:30PM 28.3167 -81.6000 180° South 81 93 2,200  Climbing Orlando TRACON
05:31PM 28.3000 -81.6000 180° South 79 91 2,100 -60 Descending Orlando TRACON
05:32PM 28.2667 -81.6000 180° South 75 86 2,100  Level Orlando TRACON
05:33PM 28.2500 -81.6167 221° Southwest 74 85 2,100  Level Orlando TRACON
05:34PM 28.2333 -81.6167 180° South 79 91 2,100 -60 Level Orlando TRACON
05:35PM 28.2167 -81.6167 180° South 79 91 2,000 -60 Descending Orlando TRACON
05:36PM 28.2000 -81.6333 221° Southwest 79 91 2,000  Level Orlando TRACON
05:37PM 28.1667 -81.6333 180° South 78 90 2,100  Climbing Orlando TRACON
05:38PM 28.1500 -81.6333 180° South 79 91 2,100  Level Orlando TRACON
05:39PM 28.1333 -81.6500 221° Southwest 80 92 2,100  Level Orlando TRACON
05:40PM 28.1000 -81.6333 156° South 78 90 2,100  Level Orlando TRACON
05:41PM 28.0833 -81.6333 180° South 77 89 2,100 -120 Level Orlando TRACON
05:42PM 28.0797 -81.6194 106° East 73 84 2,000 -120 Descending Miami Center
05:43PM 28.0639 -81.6000 133° Southeast 73 84 2,000  Level Miami Center
05:44PM 28.0478 -81.5828 137° Southeast 73 84 2,000  Level Miami Center
05:45PM 28.0314 -81.5681 142° Southeast 73 84 2,000  Level Miami Center
05:46PM 28.0131 -81.5531 144° Southeast 79 91 2,000  Level Miami Center
05:47PM 27.9950 -81.5383 144° Southeast 79 91 2,100  Climbing Miami Center
05:48PM 27.9786 -81.5283 152° Southeast 79 91 2,000  Descending Miami Center
05:49PM 27.9603 -81.5133 144° Southeast 79 91 2,100  Climbing Miami Center
05:50PM 27.9439 -81.5011 147° Southeast 79 91 2,100  Level Miami Center
05:51PM 27.9256 -81.4839 140° Southeast 79 91 2,100  Level Miami Center
05:52PM 27.9072 -81.4714 149° Southeast 79 91 2,100 -60 Level Miami Center
05:53PM 27.8889 -81.4611 154° Southeast 79 91 2,000 -60 Descending Miami Center
05:54PM 27.8703 -81.4511 155° Southeast 74 85 2,000  Level Miami Center
05:55PM 27.8519 -81.4361 144° Southeast 74 85 2,000  Level Miami Center
05:56PM 27.8336 -81.4261 154° Southeast 74 85 2,000  Level Miami Center
05:57PM 27.8153 -81.4136 149° Southeast 74 85 2,000  Level Miami Center
05:58PM 27.7967 -81.4058 160° South 74 85 2,100  Climbing Miami Center
05:59PM 27.7761 -81.4003 167° South 74 85 2,000 -60 Descending Miami Center
06:00PM 27.7553 -81.3947 167° South 74 85 2,000  Level Miami Center
06:01PM 27.7347 -81.3892 167° South 74 85 2,100  Climbing Miami Center
06:02PM 27.7139 -81.3883 178° South 74 85 2,100  Level Miami Center
06:03PM 27.6972 -81.3856 172° South 74 85 2,100  Level Miami Center
06:04PM 27.6767 -81.3728 151° Southeast 74 85 2,100  Level Miami Center
06:05PM 27.6606 -81.3583 142° Southeast 74 85 2,100  Level Miami Center
06:06PM 27.6442 -81.3433 141° Southeast 81 93 2,100  Level Miami Center
06:07PM 27.6322 -81.3267 129° Southeast 74 85 2,100 -120 Level Miami Center
06:08PM 27.6117 -81.3142 152° Southeast 74 85 1,900 -240 Descending Miami Center
06:09PM 27.5825 -81.3106 174° South 87 100 1,700 1,260 Descending Miami Center
06:10PM 27.5597 -81.3122 184° South 92 106 4,500 360 Climbing Miami Center
06:11PM 27.5386 -81.3136 183° South 84 97 2,500 -960 Descending Miami Center
06:12PM 27.5217 -81.3222 204° Southwest 84 97 2,600  Climbing Miami Center
06:13PM 27.5006 -81.3331 204° Southwest 84 97 2,600  Level Miami Center
06:14PM 27.4775 -81.3392 193° South 84 97 2,600 -60 Level Miami Center
06:15PM 27.4583 -81.3481 202° Southwest 89 102 2,500 -60 Descending Miami Center
06:16PM 27.4372 -81.3542 194° South 89 102 2,500  Level Miami Center
06:17PM 27.4183 -81.3628 202° Southwest 89 102 2,500  Level Miami Center
06:18PM 27.3950 -81.3689 193° South 89 102 2,500  Level Miami Center
06:19PM 27.3742 -81.3728 189° South 89 102 2,500 -60 Level Miami Center
06:20PM 27.3508 -81.3789 193° South 89 102 2,400  Descending Miami Center
06:21PM 27.3297 -81.3872 199° South 89 102 2,500  Climbing Miami Center
06:22PM 27.3086 -81.3958 200° South 89 102 2,500  Level Miami Center
06:23PM 27.2853 -81.4042 198° South 89 102 2,500  Level Miami Center
06:24PM 27.2642 -81.4128 200° South 89 102 2,600  Climbing Miami Center
06:25PM 27.2431 -81.4214 200° South 89 102 2,600 -60 Level Miami Center
06:26PM 27.2219 -81.4344 209° Southwest 89 102 2,500 -60 Descending Miami Center
06:27PM 27.2006 -81.4431 200° South 89 102 2,500  Level Miami Center
06:28PM 27.1794 -81.4539 205° Southwest 89 102 2,500  Level Miami Center
06:29PM 27.1583 -81.4600 194° South 89 102 2,500  Level Miami Center
06:30PM 27.1394 -81.4686 202° Southwest 89 102 2,500  Level Miami Center
06:31PM 27.1203 -81.4747 196° South 89 102 2,500 -60 Level Miami Center
06:32PM 27.0969 -81.4856 202° Southwest 89 102 2,400 -60 Descending Miami Center
06:33PM 27.0778 -81.4964 207° Southwest 89 102 2,400  Level Miami Center
06:34PM 27.0569 -81.5025 195° South 89 102 2,500  Climbing Miami Center
06:35PM 27.0358 -81.5064 189° South 89 102 2,500  Level Miami Center
06:36PM 27.0358 -81.5064 17° North 89 102 2,500  Level Miami Center
06:38PM 27.0358 -81.5064 17° North 89 102 2,500  Level Miami Center
06:40PM 26.9898 -81.5021 175° South  Level FlightAware Approximate
06:47PM 26.8262 -81.5469 197° South  Level FlightAware Approximate
06:48PM 26.8033 -81.5545 197° South  Level FlightAware Approximate
06:49PM 26.7804 -81.5622 197° South  Level FlightAware Approximate
06:50PM 26.7576 -81.5698 197° South  Level FlightAware Approximate
06:51PM 26.7347 -81.5774 197° South  Level FlightAware Approximate
06:52PM 26.7118 -81.5850 197° South  Level FlightAware Approximate
06:53PM 26.6889 -81.5926 197° South  Level FlightAware Approximate
06:54PM 26.6660 -81.6003 197° South  Level FlightAware Approximate
06:55PM 26.6432 -81.6079 197° South  Level FlightAware Approximate
06:56PM 26.6203 -81.6155 197° South  Level FlightAware Approximate
06:57PM 26.5974 -81.6231 197° South  Level FlightAware Approximate
06:58PM 26.5745 -81.6307 197° South  Level FlightAware Approximate
06:59PM 26.5517 -81.6384 197° South  Level FlightAware Approximate
07:00PM 26.5288 -81.6460 197° South  Level FlightAware Approximate
07:01PM 26.5059 -81.6536 197° South  Level FlightAware Approximate
07:02PM 26.4831 -81.6613 197° South  Level FlightAware Approximate
07:03PM 26.4602 -81.6689 197° South  Level FlightAware Approximate
07:04PM 26.4373 -81.6765 197° South  Level FlightAware Approximate
07:05PM 26.4144 -81.6842 197° South  Level FlightAware Approximate
07:06PM 26.3916 -81.6918 197° South  Level FlightAware Approximate
07:07PM 26.3687 -81.6994 197° South  Level FlightAware Approximate
07:08PM 26.3458 -81.7070 197° South  Level FlightAware Approximate
07:09PM 26.3230 -81.7146 197° South  Level FlightAware Approximate
07:10PM 26.3001 -81.7222 197° South  Level FlightAware Approximate
07:11PM 26.2772 -81.7298 197° South  Level FlightAware Approximate
07:12PM 26.2538 -81.7333 180° South  Level FlightAware Approximate
07:13PM 26.2299 -81.7333 180° South  Level FlightAware Approximate
07:14PM 26.2070 -81.7382 204° Southwest  Level FlightAware Approximate
07:15PM 26.1852 -81.7491 204° Southwest  Level FlightAware Approximate
07:16PM 26.1634 -81.7600 204° Southwest  Level FlightAware Approximate
07:17PM 26.1500 -81.7667 204° Southwest  Level FlightAware Approximate
07:18PM 26.1524 -81.7756 204° Southwest  Level Estimated
07:19PM 26.1524 -81.7756 204° Southwest  Level Estimated
07:20PM 26.1524 -81.7756 204° Southwest  Level Estimated